Time;durP1;ratioP1;P1;durP2;ratioP2;P2;SDS_P1;SDS_P2;PMS_P1;PMS_P2;Temp;Humidity;BMP_temperature;BMP_pressure;BME280_temperature;BME280_humidity;BME280_pressure;Samples;Min_cycle;Max_cycle;Signal;HPM_P1;HPM_P2
2021/12/18 00:00:33;;;;;;;43.58;18.58;;;;;;;7.68;100.00;103724.41;4960321;28;20067;-79
2021/12/18 00:02:59;;;;;;;46.13;18.33;;;;;;;7.58;100.00;103718.25;4974835;28;20122;-80
2021/12/18 00:05:24;;;;;;;48.15;19.55;;;;;;;7.58;100.00;103712.81;4969313;28;20059;-80
2021/12/18 00:07:50;;;;;;;46.08;18.95;;;;;;;7.57;100.00;103713.72;4975075;28;20091;-80
2021/12/18 00:10:20;;;;;;;46.80;19.65;;;;;;;7.59;100.00;103713.69;4957726;29;20118;-80
2021/12/18 00:12:49;;;;;;;51.10;19.83;;;;;;;7.41;100.00;103677.72;4977283;28;20046;-80
2021/12/18 00:15:15;;;;;;;51.60;20.25;;;;;;;7.51;100.00;103705.66;4942960;28;20088;-80
2021/12/18 00:17:41;;;;;;;53.15;19.95;;;;;;;7.54;100.00;103695.63;4959316;29;20042;-79
2021/12/18 00:20:07;;;;;;;49.67;19.17;;;;;;;7.46;100.00;103689.41;4958825;29;20090;-79
2021/12/18 00:22:32;;;;;;;53.30;20.05;;;;;;;7.47;100.00;103683.00;4974421;28;20033;-79
2021/12/18 00:24:58;;;;;;;52.42;20.65;;;;;;;7.57;100.00;103694.63;4943072;29;20118;-81
2021/12/18 00:27:23;;;;;;;57.85;20.65;;;;;;;7.52;100.00;103693.84;4975055;28;20031;-80
2021/12/18 00:29:49;;;;;;;43.33;17.25;;;;;;;7.51;100.00;103690.22;4961167;28;20533;-80
2021/12/18 00:32:14;;;;;;;44.60;17.33;;;;;;;7.55;100.00;103689.22;4961076;28;20435;-79
2021/12/18 00:34:40;;;;;;;43.53;17.63;;;;;;;7.49;100.00;103689.34;4969881;28;20035;-80
2021/12/18 00:37:07;;;;;;;44.10;17.08;;;;;;;7.41;100.00;103683.16;4959138;28;20027;-79
2021/12/18 00:39:34;;;;;;;47.25;18.83;;;;;;;7.40;100.00;103685.91;4942508;28;20031;-79
2021/12/18 00:42:08;;;;;;;42.75;17.10;;;;;;;7.53;100.00;103687.47;4952979;29;20035;-79
2021/12/18 00:44:34;;;;;;;55.42;18.52;;;;;;;7.55;100.00;103688.31;4973932;28;20031;-79
2021/12/18 00:47:00;;;;;;;43.72;17.02;;;;;;;7.53;100.00;103695.63;4974676;28;20094;-79
2021/12/18 00:49:27;;;;;;;45.85;16.52;;;;;;;7.43;100.00;103686.75;4943880;28;20050;-79
2021/12/18 00:51:52;;;;;;;47.15;17.15;;;;;;;7.47;100.00;103683.00;4958876;28;20082;-79
2021/12/18 00:54:17;;;;;;;49.90;17.38;;;;;;;7.31;100.00;103667.91;4959111;29;20035;-80
2021/12/18 00:56:43;;;;;;;51.10;17.80;;;;;;;7.42;100.00;103684.94;4973725;28;20027;-80
2021/12/18 00:59:09;;;;;;;48.80;17.33;;;;;;;7.46;100.00;103681.25;4943785;28;20055;-80
2021/12/18 01:01:35;;;;;;;44.13;17.35;;;;;;;7.44;100.00;103674.91;4959610;28;20031;-79
2021/12/18 01:04:01;;;;;;;43.38;16.08;;;;;;;7.41;100.00;103672.25;4958604;28;20047;-79
2021/12/18 01:06:26;;;;;;;46.38;17.25;;;;;;;7.43;100.00;103678.56;4959287;28;20118;-80
2021/12/18 01:08:53;;;;;;;40.92;15.13;;;;;;;7.40;100.00;103677.75;4960172;28;20039;-80
2021/12/18 01:25:03;;;;;;;41.42;16.55;;;;;;;7.34;100.00;103673.28;4957298;28;20031;-79
2021/12/18 01:27:29;;;;;;;48.08;15.98;;;;;;;7.35;100.00;103673.25;4963501;28;20031;-80
2021/12/18 01:29:54;;;;;;;49.40;16.15;;;;;;;7.39;100.00;103673.22;4963176;28;20474;-80
2021/12/18 01:32:20;;;;;;;47.22;15.57;;;;;;;7.30;100.00;103657.94;4980002;28;20094;-79
2021/12/18 01:34:46;;;;;;;40.50;14.65;;;;;;;7.33;100.00;103671.53;4978666;28;20375;-80
2021/12/18 01:37:12;;;;;;;45.65;16.63;;;;;;;7.34;100.00;103668.72;4958235;28;20394;-80
2021/12/18 01:39:37;;;;;;;40.80;15.60;;;;;;;7.38;100.00;103674.13;4963033;29;20023;-80
2021/12/18 01:42:44;;;;;;;46.47;16.75;;;;;;;7.42;100.00;103675.88;4962044;28;20058;-80
2021/12/18 01:45:39;;;;;;;45.45;15.98;;;;;;;7.37;100.00;103684.13;4974445;28;20125;-80
2021/12/18 01:53:10;;;;;;;42.63;15.15;;;;;;;7.28;100.00;103679.78;4963098;28;20031;-79
2021/12/18 01:55:38;;;;;;;44.55;16.08;;;;;;;7.28;100.00;103690.69;4961874;29;20087;-80
2021/12/18 01:58:05;;;;;;;50.00;17.30;;;;;;;7.36;100.00;103685.06;4962226;28;20153;-79
2021/12/18 02:00:40;;;;;;;54.13;17.67;;;;;;;7.36;100.00;103693.22;4963486;28;20098;-79
2021/12/18 02:03:06;;;;;;;54.30;17.25;;;;;;;7.33;100.00;103694.22;4960708;28;20027;-80
2021/12/18 02:05:32;;;;;;;50.05;16.05;;;;;;;7.37;100.00;103686.88;4977309;28;20031;-79
2021/12/18 02:07:59;;;;;;;42.55;15.15;;;;;;;7.37;100.00;103689.59;4961847;28;20547;-81
2021/12/18 02:10:28;;;;;;;44.92;15.13;;;;;;;7.36;100.00;103691.44;4963582;28;20084;-79
2021/12/18 02:13:03;;;;;;;36.90;14.15;;;;;;;7.35;100.00;103683.28;4961253;29;20047;-78
2021/12/18 02:21:07;;;;;;;50.88;15.38;;;;;;;7.21;100.00;103672.63;4962979;28;20406;-80
2021/12/18 02:23:36;;;;;;;40.40;13.83;;;;;;;7.21;100.00;103685.38;4975220;28;20422;-79
2021/12/18 02:26:02;;;;;;;45.65;15.35;;;;;;;7.25;100.00;103687.13;4946322;29;20291;-79
2021/12/18 02:28:28;;;;;;;44.42;15.02;;;;;;;7.20;100.00;103672.66;4944074;28;20051;-79
2021/12/18 02:30:56;;;;;;;38.72;13.32;;;;;;;7.19;100.00;103679.94;4959319;29;20039;-80
2021/12/18 02:33:22;;;;;;;39.88;13.95;;;;;;;7.17;100.00;103687.25;4976490;28;20031;-80
2021/12/18 02:35:50;;;;;;;41.25;13.55;;;;;;;7.22;100.00;103681.72;4963267;28;20383;-80
2021/12/18 02:38:20;;;;;;;41.60;15.63;;;;;;;7.32;100.00;103684.22;4970806;28;20039;-80
2021/12/18 02:43:16;;;;;;;40.85;14.55;;;;;;;7.31;100.00;103673.34;4962177;28;20038;-80
2021/12/18 02:45:42;;;;;;;42.13;13.95;;;;;;;7.28;100.00;103679.78;4977196;28;20035;-79
2021/12/18 02:48:07;;;;;;;45.63;14.82;;;;;;;7.27;100.00;103677.97;4976662;28;20446;-80
2021/12/18 02:50:33;;;;;;;40.63;13.88;;;;;;;7.23;100.00;103665.34;4962587;28;20070;-80
2021/12/18 02:52:58;;;;;;;45.42;14.88;;;;;;;7.21;100.00;103672.63;4962056;29;20054;-80
2021/12/18 02:55:24;;;;;;;42.70;14.48;;;;;;;7.26;100.00;103672.53;4977793;28;20403;-80
2021/12/18 02:57:49;;;;;;;42.83;14.45;;;;;;;7.27;100.00;103666.19;4960965;29;20027;-79
2021/12/18 03:00:16;;;;;;;38.22;13.70;;;;;;;7.27;100.00;103650.72;4977403;28;20472;-80
2021/12/18 03:02:44;;;;;;;44.03;14.55;;;;;;;7.18;100.00;103654.53;4961760;28;20035;-79
2021/12/18 03:05:17;;;;;;;43.53;14.55;;;;;;;7.22;100.00;103655.38;4962041;28;20038;-79
2021/12/18 03:07:42;;;;;;;41.13;15.00;;;;;;;7.28;100.00;103655.25;4958421;28;20392;-78
2021/12/18 03:23:43;;;;;;;47.95;14.40;;;;;;;7.17;100.00;103636.38;4960542;29;20039;-79
2021/12/18 03:26:09;;;;;;;49.08;15.38;;;;;;;7.11;100.00;103638.31;4961066;28;20035;-79
2021/12/18 03:28:34;;;;;;;50.85;14.57;;;;;;;7.16;100.00;103634.56;4961619;28;20471;-78
2021/12/18 03:31:00;;;;;;;47.58;14.38;;;;;;;7.14;100.00;103632.81;4968464;28;20035;-81
2021/12/18 03:33:26;;;;;;;49.30;14.45;;;;;;;7.20;100.00;103648.13;4961763;28;20035;-79
2021/12/18 03:35:52;;;;;;;39.03;12.10;;;;;;;7.20;100.00;103646.34;4960867;28;20027;-79
2021/12/18 03:38:18;;;;;;;38.78;12.70;;;;;;;6.96;100.00;103615.00;4961617;28;20482;-79
2021/12/18 03:40:43;;;;;;;31.88;11.18;;;;;;;7.08;100.00;103633.81;4956962;29;20240;-79
2021/12/18 03:43:09;;;;;;;35.45;11.77;;;;;;;7.19;100.00;103649.97;4974318;28;20035;-79
2021/12/18 03:45:34;;;;;;;33.95;12.02;;;;;;;7.14;100.00;103639.16;4953799;29;20024;-79
2021/12/18 03:48:00;;;;;;;37.47;12.60;;;;;;;7.17;100.00;103636.38;4975891;28;20042;-79
2021/12/18 03:50:25;;;;;;;52.35;13.75;;;;;;;7.10;100.00;103631.06;4959600;28;20035;-79
2021/12/18 03:52:51;;;;;;;51.38;14.43;;;;;;;7.18;100.00;103640.91;4967177;28;20039;-80
2021/12/18 03:55:16;;;;;;;43.13;13.52;;;;;;;7.20;100.00;103646.34;4974999;28;20043;-79
2021/12/18 03:57:42;;;;;;;35.45;11.18;;;;;;;7.33;100.00;103639.69;4961533;28;20054;-79
2021/12/18 04:00:12;;;;;;;37.95;12.13;;;;;;;7.16;100.00;103640.00;4961732;28;20710;-80
2021/12/18 04:02:37;;;;;;;43.63;13.18;;;;;;;7.15;100.00;103650.97;4960503;28;20043;-79
2021/12/18 04:05:03;;;;;;;51.50;13.98;;;;;;;7.16;100.00;103650.03;4966352;28;20356;-79
2021/12/18 04:07:28;;;;;;;52.72;13.65;;;;;;;7.09;100.00;103649.25;4959505;28;20046;-79
2021/12/18 04:09:54;;;;;;;45.22;13.85;;;;;;;7.12;100.00;103651.03;4959917;29;20045;-79
2021/12/18 04:12:19;;;;;;;52.05;15.20;;;;;;;7.09;100.00;103654.69;4943575;28;20051;-80
2021/12/18 04:14:44;;;;;;;43.10;13.88;;;;;;;7.16;100.00;103645.47;4956941;29;20050;-79
2021/12/18 04:17:10;;;;;;;59.78;14.75;;;;;;;7.09;100.00;103627.47;4959467;28;20075;-80
2021/12/18 04:19:35;;;;;;;50.35;15.48;;;;;;;7.02;100.00;103636.69;4947210;28;20038;-79
2021/12/18 04:22:01;;;;;;;44.03;13.70;;;;;;;7.12;100.00;103635.56;4958676;28;20062;-79
2021/12/18 04:24:27;;;;;;;51.83;14.90;;;;;;;7.11;100.00;103641.94;4948407;28;20042;-79
2021/12/18 04:26:52;;;;;;;60.33;15.68;;;;;;;7.06;100.00;103648.41;4959453;28;20047;-79
2021/12/18 04:29:18;;;;;;;52.15;15.52;;;;;;;7.09;100.00;103641.09;4960799;28;20023;-80
2021/12/18 04:31:43;;;;;;;44.08;15.50;;;;;;;7.12;100.00;103642.84;4957467;28;20035;-79
2021/12/18 04:34:09;;;;;;;47.85;14.85;;;;;;;7.18;100.00;103642.72;4962116;28;20059;-79
2021/12/18 04:36:35;;;;;;;50.45;15.05;;;;;;;7.20;100.00;103645.41;4979824;28;20046;-79
2021/12/18 04:39:01;;;;;;;53.10;15.18;;;;;;;7.21;100.00;103650.84;4945627;29;20494;-79
2021/12/18 04:41:48;;;;;;;48.75;14.88;;;;;;;7.11;100.00;103641.94;4959761;28;20411;-79
2021/12/18 04:44:14;;;;;;;53.60;15.45;;;;;;;7.21;100.00;103647.22;4958980;28;20038;-79
2021/12/18 04:46:40;;;;;;;48.58;14.82;;;;;;;7.25;100.00;103651.69;4957920;28;20031;-79
2021/12/18 04:49:06;;;;;;;55.28;17.15;;;;;;;7.10;100.00;103631.06;4973793;28;20043;-79
2021/12/18 04:51:31;;;;;;;53.15;15.93;;;;;;;7.26;100.00;103650.75;4959045;29;20110;-80
2021/12/18 04:53:57;;;;;;;60.30;16.95;;;;;;;7.24;100.00;103642.59;4953340;28;20047;-80
2021/12/18 04:56:23;;;;;;;56.45;16.65;;;;;;;7.18;100.00;103649.09;4960084;28;20035;-80
2021/12/18 04:58:50;;;;;;;53.88;15.52;;;;;;;7.19;100.00;103655.41;4976459;28;20023;-80
2021/12/18 05:01:16;;;;;;;50.63;14.48;;;;;;;7.17;100.00;103657.28;4960487;28;20042;-80
2021/12/18 05:03:43;;;;;;;57.97;16.52;;;;;;;6.95;100.00;103627.75;4954424;28;20035;-80
2021/12/18 05:06:08;;;;;;;49.83;14.93;;;;;;;6.97;100.00;103630.44;4971491;28;20079;-80
2021/12/18 05:08:34;;;;;;;59.35;16.67;;;;;;;7.11;100.00;103649.22;4975659;28;20442;-80
2021/12/18 05:10:59;;;;;;;56.35;15.68;;;;;;;7.16;100.00;103655.47;4943559;28;20069;-80
2021/12/18 05:13:25;;;;;;;60.40;15.80;;;;;;;7.06;100.00;103665.66;4960165;29;20039;-80
2021/12/18 05:15:50;;;;;;;60.05;16.80;;;;;;;7.06;100.00;103657.47;4943464;29;20491;-80
2021/12/18 05:18:16;;;;;;;60.08;16.52;;;;;;;7.00;100.00;103660.31;4960578;28;20146;-80
2021/12/18 05:20:42;;;;;;;64.57;17.30;;;;;;;7.12;100.00;103662.81;4958423;29;20176;-80
2021/12/18 05:23:07;;;;;;;72.28;17.08;;;;;;;7.07;100.00;103661.13;4958935;29;20034;-80
2021/12/18 05:25:33;;;;;;;68.00;18.02;;;;;;;7.10;100.00;103666.50;4975361;28;20045;-80
2021/12/18 05:27:59;;;;;;;67.20;17.60;;;;;;;7.03;100.00;103671.16;4975679;28;20070;-80
2021/12/18 05:30:24;;;;;;;63.17;18.45;;;;;;;7.06;100.00;103662.94;4960271;28;20053;-81
2021/12/18 05:32:50;;;;;;;46.47;13.80;;;;;;;7.18;100.00;103668.16;4959179;28;20570;-80
2021/12/18 05:35:18;;;;;;;43.78;12.57;;;;;;;7.17;100.00;103670.91;4977332;28;20035;-80
2021/12/18 05:37:50;;;;;;;33.70;11.07;;;;;;;7.11;100.00;103666.47;4959664;28;20430;-80
2021/12/18 05:40:19;;;;;;;39.53;11.50;;;;;;;7.05;100.00;103663.88;4958077;28;20035;-80
2021/12/18 05:42:46;;;;;;;32.95;10.68;;;;;;;7.05;100.00;103671.13;4942710;29;20038;-80
2021/12/18 05:45:11;;;;;;;30.90;9.98;;;;;;;6.99;100.00;103667.59;4975330;28;20027;-80
2021/12/18 05:47:37;;;;;;;32.60;10.68;;;;;;;7.02;100.00;103672.09;4966005;28;20395;-80
2021/12/18 05:50:05;;;;;;;30.92;8.27;;;;;;;7.00;100.00;103673.94;4959314;28;20050;-80
2021/12/18 05:52:31;;;;;;;23.17;7.72;;;;;;;7.03;100.00;103675.72;4957202;29;20023;-79
2021/12/18 05:54:56;;;;;;;23.95;7.88;;;;;;;7.00;100.00;103673.94;4957683;29;20041;-80
2021/12/18 05:57:23;;;;;;;24.02;8.20;;;;;;;6.96;100.00;103674.94;4973956;28;20046;-78
2021/12/18 05:59:48;;;;;;;25.05;8.02;;;;;;;6.97;100.00;103668.56;4960569;28;20042;-79
2021/12/18 06:02:14;;;;;;;24.60;8.55;;;;;;;6.90;100.00;103667.75;4975030;28;20047;-78
2021/12/18 06:04:42;;;;;;;37.28;9.50;;;;;;;6.88;100.00;103672.34;4961321;28;20083;-78
2021/12/18 06:07:16;;;;;;;31.23;8.35;;;;;;;6.95;100.00;103671.31;4962953;28;20054;-79
2021/12/18 06:09:41;;;;;;;28.73;9.02;;;;;;;6.99;100.00;103680.31;4963913;28;20035;-78
2021/12/18 06:12:07;;;;;;;32.17;8.55;;;;;;;6.92;100.00;103679.53;4973289;28;20102;-79
2021/12/18 06:14:33;;;;;;;35.03;8.35;;;;;;;6.88;100.00;103674.19;4964641;28;20424;-79
2021/12/18 06:16:58;;;;;;;28.27;8.90;;;;;;;6.91;100.00;103674.13;4944240;29;20046;-79
2021/12/18 06:19:24;;;;;;;39.83;8.55;;;;;;;6.95;100.00;103671.31;4961461;28;20078;-80
2021/12/18 06:21:49;;;;;;;35.00;8.23;;;;;;;6.88;100.00;103674.19;4966379;29;20031;-79
2021/12/18 06:24:15;;;;;;;30.75;7.63;;;;;;;6.81;100.00;103671.56;4963851;29;20476;-79
2021/12/18 06:26:41;;;;;;;27.98;8.57;;;;;;;6.91;100.00;103664.13;4948961;29;20039;-78
2021/12/18 06:29:07;;;;;;;30.60;8.75;;;;;;;6.92;100.00;103667.72;4952236;29;20042;-78
2021/12/18 06:31:34;;;;;;;34.08;8.40;;;;;;;6.89;100.00;103668.69;4963560;28;20035;-79
2021/12/18 06:33:59;;;;;;;31.35;8.70;;;;;;;6.91;100.00;103664.13;4965114;28;20059;-78
2021/12/18 06:36:25;;;;;;;30.70;7.85;;;;;;;6.83;100.00;103654.31;4972155;28;20513;-79
2021/12/18 06:38:51;;;;;;;29.27;8.20;;;;;;;6.82;100.00;103672.44;4976745;28;20034;-79
2021/12/18 06:41:16;;;;;;;27.33;6.88;;;;;;;6.76;100.00;103662.56;4962299;28;20471;-79
2021/12/18 06:43:42;;;;;;;31.40;8.00;;;;;;;6.74;100.00;103664.44;4962337;29;20046;-79
2021/12/18 06:46:07;;;;;;;37.28;8.52;;;;;;;6.81;100.00;103667.94;4945546;28;20067;-78
2021/12/18 06:48:34;;;;;;;34.33;8.40;;;;;;;6.80;100.00;103666.13;4985447;28;20034;-79
2021/12/18 06:50:59;;;;;;;32.00;6.95;;;;;;;6.74;100.00;103660.78;4970105;28;20044;-79
2021/12/18 06:53:25;;;;;;;31.95;8.52;;;;;;;6.85;100.00;103666.06;4962107;28;20035;-79
2021/12/18 06:55:50;;;;;;;32.35;7.65;;;;;;;6.84;100.00;103661.53;4954606;29;20078;-78
2021/12/18 06:58:16;;;;;;;35.08;9.88;;;;;;;6.84;100.00;103659.72;4974929;28;20039;-79
2021/12/18 07:00:42;;;;;;;27.20;7.07;;;;;;;6.73;100.00;103651.72;4950443;29;20046;-79
2021/12/18 07:03:07;;;;;;;24.27;6.20;;;;;;;6.73;100.00;103659.91;4956631;29;20039;-79
2021/12/18 07:05:33;;;;;;;30.98;7.07;;;;;;;6.79;100.00;103657.06;4962378;29;20066;-78
2021/12/18 07:07:58;;;;;;;27.55;6.93;;;;;;;6.91;100.00;103649.59;4976160;28;20556;-79
2021/12/18 07:10:24;;;;;;;24.83;7.30;;;;;;;6.95;100.00;103654.06;4960063;28;20047;-79
2021/12/18 07:12:49;;;;;;;20.85;6.32;;;;;;;6.82;100.00;103650.66;4973715;28;20043;-79
2021/12/18 07:15:15;;;;;;;22.83;6.95;;;;;;;6.85;100.00;103657.88;4975814;28;20045;-79
2021/12/18 07:17:41;;;;;;;23.38;6.30;;;;;;;6.86;100.00;103648.81;4976009;28;20031;-79
2021/12/18 07:20:08;;;;;;;22.73;6.43;;;;;;;6.88;100.00;103650.56;4961829;28;20051;-80
2021/12/18 07:22:33;;;;;;;26.40;6.60;;;;;;;6.86;100.00;103657.84;4963440;29;20043;-79
2021/12/18 07:24:59;;;;;;;28.50;7.35;;;;;;;6.87;100.00;103658.75;4960613;28;20038;-78
2021/12/18 07:27:24;;;;;;;29.63;7.63;;;;;;;6.82;100.00;103653.38;4959124;28;20027;-80
2021/12/18 07:29:50;;;;;;;30.95;8.02;;;;;;;6.79;100.00;103650.75;4961271;28;20380;-78
2021/12/18 07:32:15;;;;;;;25.77;7.32;;;;;;;6.84;100.00;103659.72;4957332;29;20039;-79
2021/12/18 07:34:41;;;;;;;28.30;7.65;;;;;;;6.84;100.00;103650.63;4963337;28;20556;-79
2021/12/18 07:37:06;;;;;;;23.45;6.63;;;;;;;6.85;100.00;103657.88;4959758;28;20034;-79
2021/12/18 07:39:32;;;;;;;24.48;5.97;;;;;;;6.88;100.00;103660.56;4958562;28;20110;-79
2021/12/18 07:41:57;;;;;;;21.48;6.18;;;;;;;6.93;100.00;103666.81;4937030;29;20047;-80
2021/12/18 07:44:23;;;;;;;16.77;4.90;;;;;;;6.75;100.00;103638.09;4975006;28;20039;-81
2021/12/18 07:46:48;;;;;;;24.25;6.65;;;;;;;6.98;100.00;103670.34;4959278;28;20043;-78
2021/12/18 07:49:14;;;;;;;24.05;6.53;;;;;;;6.94;100.00;103663.19;4957205;28;20035;-79
2021/12/18 07:51:42;;;;;;;27.33;6.90;;;;;;;6.89;100.00;103665.97;4957655;28;20102;-80
2021/12/18 07:54:07;;;;;;;27.50;6.78;;;;;;;6.81;100.00;103657.94;4956664;28;20063;-78
2021/12/18 07:56:34;;;;;;;33.28;6.47;;;;;;;6.77;100.00;103661.66;4960330;28;20542;-78
2021/12/18 07:59:00;;;;;;;31.40;7.03;;;;;;;6.77;100.00;103653.50;4953117;29;20523;-78
2021/12/18 08:01:25;;;;;;;29.27;6.82;;;;;;;6.89;100.00;103662.38;4974784;28;20031;-78
2021/12/18 08:03:51;;;;;;;35.63;7.05;;;;;;;6.80;100.00;103664.31;4973466;28;21701;-79
2021/12/18 08:06:19;;;;;;;24.45;6.28;;;;;;;6.79;100.00;103667.06;4960371;28;20106;-79
2021/12/18 08:08:44;;;;;;;20.42;5.22;;;;;;;6.85;100.00;103666.94;4976121;28;20027;-79
2021/12/18 08:11:10;;;;;;;29.02;6.03;;;;;;;6.90;100.00;103678.66;4975510;28;20063;-79
2021/12/18 08:13:35;;;;;;;27.48;6.55;;;;;;;6.77;100.00;103661.66;4972623;28;20070;-80
2021/12/18 08:16:00;;;;;;;27.10;6.47;;;;;;;6.90;100.00;103672.31;4973872;28;20460;-80
2021/12/18 08:18:26;;;;;;;25.02;5.93;;;;;;;6.85;100.00;103657.88;4959050;28;21633;-78
2021/12/18 08:20:51;;;;;;;25.48;6.30;;;;;;;6.96;100.00;103666.75;4958309;28;20035;-77
2021/12/18 08:23:17;;;;;;;23.50;5.50;;;;;;;6.97;100.00;103660.41;4958069;28;20041;-78
2021/12/18 08:25:43;;;;;;;24.45;6.38;;;;;;;6.92;100.00;103662.28;4956055;28;20059;-77
2021/12/18 08:28:08;;;;;;;23.02;5.68;;;;;;;6.90;100.00;103673.19;4952193;28;20035;-79
2021/12/18 08:30:38;;;;;;;23.77;6.25;;;;;;;6.91;100.00;103657.78;4972685;28;20029;-79
2021/12/18 08:33:05;;;;;;;25.17;6.90;;;;;;;6.91;100.00;103663.22;4956467;28;20476;-78
2021/12/18 08:35:31;;;;;;;20.55;5.95;;;;;;;6.92;100.00;103660.47;4953218;28;20028;-78
2021/12/18 08:37:58;;;;;;;26.10;6.95;;;;;;;6.95;100.00;103664.94;4972140;28;20058;-78
2021/12/18 08:40:24;;;;;;;31.45;7.07;;;;;;;6.95;100.00;103656.78;4956459;28;20046;-79
2021/12/18 08:42:51;;;;;;;34.45;6.78;;;;;;;7.01;100.00;103662.13;4971977;28;20031;-78
2021/12/18 08:45:16;;;;;;;29.38;7.57;;;;;;;6.97;100.00;103660.41;4945770;28;20514;-78
2021/12/18 08:47:43;;;;;;;22.30;5.63;;;;;;;7.16;100.00;103656.38;4956925;28;20035;-78
2021/12/18 08:50:11;;;;;;;17.63;4.88;;;;;;;7.05;100.00;103660.22;4957973;28;20542;-78
2021/12/18 08:52:37;;;;;;;21.13;5.50;;;;;;;7.06;100.00;103656.59;4956499;28;20047;-79
2021/12/18 08:55:06;;;;;;;23.10;5.72;;;;;;;7.02;100.00;103669.38;4955943;28;20162;-79
2021/12/18 08:57:32;;;;;;;19.90;5.80;;;;;;;7.08;100.00;103669.22;4972939;28;20039;-78
2021/12/18 08:59:57;;;;;;;26.15;6.43;;;;;;;7.08;100.00;103663.78;4972702;28;20054;-79
2021/12/18 09:02:23;;;;;;;20.38;5.85;;;;;;;7.16;100.00;103670.00;4972753;28;20031;-79
2021/12/18 09:04:49;;;;;;;16.73;5.20;;;;;;;7.15;100.00;103667.31;4969789;28;20047;-79
2021/12/18 09:07:17;;;;;;;14.27;4.28;;;;;;;7.20;100.00;103669.94;4972430;28;20062;-79
2021/12/18 09:09:42;;;;;;;12.07;3.90;;;;;;;7.23;100.00;103668.06;4957633;28;20460;-79
2021/12/18 09:12:10;;;;;;;7.60;2.63;;;;;;;7.24;100.00;103669.84;4950001;28;20158;-79
2021/12/18 09:14:36;;;;;;;9.57;2.92;;;;;;;7.13;100.00;103669.16;4956365;28;20078;-79
2021/12/18 09:17:02;;;;;;;8.98;2.47;;;;;;;7.12;100.00;103672.81;4954304;28;20027;-78
2021/12/18 09:19:28;;;;;;;7.47;2.85;;;;;;;7.17;100.00;103662.75;4956070;28;20055;-78
2021/12/18 09:21:53;;;;;;;9.05;2.85;;;;;;;7.21;100.00;103669.91;4971450;28;20066;-80
2021/12/18 09:24:20;;;;;;;9.98;3.03;;;;;;;7.22;100.00;103663.53;4970988;28;20035;-78
2021/12/18 09:26:47;;;;;;;9.80;3.20;;;;;;;7.22;100.00;103671.72;4939750;28;20126;-79
2021/12/18 09:29:12;;;;;;;8.13;2.85;;;;;;;7.23;100.00;103670.81;4966306;28;20043;-78
2021/12/18 09:31:41;;;;;;;9.20;3.30;;;;;;;7.30;100.00;103674.31;4960873;28;20485;-78
2021/12/18 09:34:06;;;;;;;8.32;2.92;;;;;;;7.27;100.00;103677.97;4959155;28;20028;-78
2021/12/18 09:36:32;;;;;;;9.88;3.00;;;;;;;7.32;100.00;103670.59;4976548;28;20074;-78
2021/12/18 09:38:58;;;;;;;11.52;3.30;;;;;;;7.24;100.00;103669.84;4975642;28;20043;-78
2021/12/18 09:41:24;;;;;;;11.55;3.50;;;;;;;7.25;100.00;103677.09;4959051;28;20042;-78
2021/12/18 09:43:50;;;;;;;12.07;3.70;;;;;;;7.18;100.00;103679.06;4957860;29;20066;-77
2021/12/18 09:46:17;;;;;;;14.35;3.88;;;;;;;7.22;100.00;103674.44;4958381;28;20122;-78
2021/12/18 09:48:44;;;;;;;8.40;2.65;;;;;;;7.24;100.00;103667.13;4960097;28;20039;-78
2021/12/18 09:51:20;;;;;;;7.57;2.30;;;;;;;7.23;100.00;103662.63;4954645;28;20041;-78
2021/12/18 09:53:46;;;;;;;9.63;2.72;;;;;;;7.23;100.00;103659.91;4955932;28;20031;-78
2021/12/18 09:56:11;;;;;;;11.65;3.80;;;;;;;7.29;100.00;103665.19;4955656;28;20066;-78
2021/12/18 09:58:37;;;;;;;8.80;2.42;;;;;;;7.29;100.00;103656.13;4955139;28;20047;-78
2021/12/18 10:01:02;;;;;;;9.35;2.72;;;;;;;7.23;100.00;103651.72;4959343;28;20054;-78
2021/12/18 10:03:49;;;;;;;8.63;2.40;;;;;;;7.31;100.00;103646.09;4957161;28;20047;-78
2021/12/18 10:06:37;;;;;;;9.65;3.33;;;;;;;7.39;100.00;103646.84;4955385;29;20082;-78
2021/12/18 10:09:09;;;;;;;13.80;2.92;;;;;;;7.39;100.00;103641.38;4967935;28;20047;-78
2021/12/18 10:11:45;;;;;;;8.70;2.92;;;;;;;7.17;100.00;103638.22;4967332;28;20051;-79
2021/12/18 10:14:11;;;;;;;7.82;3.00;;;;;;;7.25;100.00;103638.06;4953363;29;20558;-79
2021/12/18 10:16:49;;;;;;;12.05;3.30;;;;;;;7.29;100.00;103646.13;4952495;29;20035;-79
2021/12/18 10:19:39;;;;;;;16.48;3.22;;;;;;;7.27;100.00;103644.38;4960257;28;20131;-78
2021/12/18 10:22:09;;;;;;;12.15;2.80;;;;;;;7.24;100.00;103630.81;4970901;28;20632;-79
2021/12/18 10:24:37;;;;;;;12.55;3.35;;;;;;;7.27;100.00;103636.19;4955795;28;20114;-79
2021/12/18 10:27:21;;;;;;;12.15;3.92;;;;;;;7.24;100.00;103634.44;4941544;28;20058;-81
2021/12/18 10:29:49;;;;;;;10.35;3.03;;;;;;;7.33;100.00;103638.81;4969651;28;20039;-79
2021/12/18 10:32:20;;;;;;;9.73;2.97;;;;;;;7.21;100.00;103639.94;4956068;28;20506;-80
2021/12/18 10:34:53;;;;;;;11.32;3.15;;;;;;;7.17;100.00;103636.38;4953790;29;20073;-81
2021/12/18 10:37:21;;;;;;;11.93;4.18;;;;;;;7.11;100.00;103639.22;4958411;28;20084;-80
2021/12/18 10:40:08;;;;;;;13.15;4.13;;;;;;;7.14;100.00;103641.88;4959541;28;20390;-79
2021/12/18 10:42:42;;;;;;;11.57;4.32;;;;;;;7.12;100.00;103632.84;4956405;29;20051;-78
2021/12/18 10:45:24;;;;;;;10.68;3.83;;;;;;;7.13;100.00;103637.38;4957258;28;20031;-78
2021/12/18 10:48:03;;;;;;;10.02;3.40;;;;;;;7.13;100.00;103629.22;4978828;28;20023;-78
2021/12/18 10:50:29;;;;;;;13.32;3.55;;;;;;;7.13;100.00;103631.94;4956383;28;20475;-79
2021/12/18 10:53:07;;;;;;;10.93;4.10;;;;;;;7.17;100.00;103638.22;4960807;28;20098;-81
2021/12/18 10:55:35;;;;;;;15.05;4.68;;;;;;;7.13;100.00;103629.22;4957899;29;20031;-79
2021/12/18 10:58:03;;;;;;;14.68;5.05;;;;;;;7.32;100.00;103621.53;4943061;29;20048;-79
2021/12/18 11:00:37;;;;;;;17.60;4.63;;;;;;;7.29;100.00;103628.88;4959525;28;20409;-79
2021/12/18 11:03:19;;;;;;;13.05;4.60;;;;;;;7.29;100.00;103631.59;4956618;28;20039;-80
2021/12/18 11:06:01;;;;;;;14.35;4.93;;;;;;;7.24;100.00;103628.09;4957516;29;20039;-79
2021/12/18 11:08:27;;;;;;;14.40;5.60;;;;;;;7.21;100.00;103623.59;4956275;28;20054;-80
2021/12/18 11:13:48;;;;;;;11.98;3.85;;;;;;;7.18;100.00;103624.56;4959879;29;20050;-80
2021/12/18 11:16:16;;;;;;;12.00;4.07;;;;;;;7.11;100.00;103614.69;4942523;29;20037;-79
2021/12/18 11:18:42;;;;;;;14.25;4.65;;;;;;;7.10;100.00;103614.72;4958061;28;20559;-79
2021/12/18 11:21:08;;;;;;;11.85;4.38;;;;;;;7.13;100.00;103617.38;4972914;28;20034;-79
2021/12/18 11:23:46;;;;;;;11.45;4.15;;;;;;;7.16;100.00;103617.34;4941932;28;20031;-79
2021/12/18 11:26:13;;;;;;;9.43;3.50;;;;;;;7.19;100.00;103611.81;4951677;28;20044;-80
2021/12/18 11:28:46;;;;;;;12.45;3.38;;;;;;;7.18;100.00;103610.03;4958477;28;20035;-79
2021/12/18 11:31:12;;;;;;;;;;;;;;;7.24;100.00;103615.34;4967243;28;20035;-80
2021/12/18 11:33:38;;;;;;;6.82;2.78;;;;;;;7.27;100.00;103600.78;4959283;29;20331;-79
2021/12/18 11:36:05;;;;;;;6.97;2.85;;;;;;;7.19;100.00;103606.38;4958262;29;20035;-80
2021/12/18 11:38:33;;;;;;;11.52;4.15;;;;;;;7.22;100.00;103600.88;4965378;28;20139;-80
2021/12/18 11:40:59;;;;;;;10.85;4.13;;;;;;;7.31;100.00;103607.94;4942183;29;20491;-80
2021/12/18 11:43:29;;;;;;;12.45;5.28;;;;;;;7.24;100.00;103604.44;4958302;28;20395;-80
2021/12/18 11:45:55;;;;;;;14.27;6.70;;;;;;;7.38;100.00;103606.91;4957251;29;20046;-79
2021/12/18 11:48:21;;;;;;;17.83;6.65;;;;;;;7.40;100.00;103613.22;4958965;29;20038;-79
2021/12/18 11:50:48;;;;;;;13.38;4.78;;;;;;;7.22;100.00;103603.59;4973482;28;20034;-79
2021/12/18 11:53:19;;;;;;;14.13;6.07;;;;;;;7.40;100.00;103610.47;4969927;28;20043;-78
2021/12/18 11:55:48;;;;;;;18.80;6.75;;;;;;;7.13;100.00;103607.41;4973385;28;20116;-79
2021/12/18 11:58:16;;;;;;;20.55;8.13;;;;;;;7.08;100.00;103600.25;4958562;28;20065;-79